Oldebroek, Netherlands
Current Conditions -  °F | °C
As of 2:25 PM on Thursday 27 Nov 2014 (Local Time) from EHDL Reporting Station
Overcast Overcast  
Wind Chill: 42°   Ceiling: 3800
Heat Index: 46°   Visibility: 6mi
Dew Point: 43°   Wind: 8mph
Humidity: 87%   Direction: 110°ESE
Pressure: 29.74"   Gusts: NA
Location:  52.45°N, 5.9°E
Report Text: EHDL 271325Z AUTO 11007KT 9999 BKN038 OVC042 08/06 Q1007 BLU
Loading
Personal Weather Stations






























Interactive Weather Map New forecast layout! Learn more

10-Day Weather Forecast

Advertisements
Track Severe Weather on mobile